Time;durP1;ratioP1;P1;durP2;ratioP2;P2;SDS_P1;SDS_P2;PMS_P1;PMS_P2;Temp;Humidity;BMP_temperature;BMP_pressure;BME280_temperature;BME280_humidity;BME280_pressure;Samples;Min_cycle;Max_cycle;Signal;HPM_P1;HPM_P2
2023/12/22 00:00:40;;;;;;;52.60;41.90;;;5.60;74.60;;;;;;5009459;28;20204;-93
2023/12/22 00:03:05;;;;;;;59.30;41.43;;;5.70;74.30;;;;;;5009637;28;20189;-92
2023/12/22 00:05:31;;;;;;;61.53;40.93;;;5.60;75.00;;;;;;5009529;28;20174;-92
2023/12/22 00:07:57;;;;;;;54.23;44.90;;;5.60;74.90;;;;;;5009780;28;20201;-92
2023/12/22 00:10:23;;;;;;;50.17;42.23;;;5.60;74.50;;;;;;5005752;28;20205;-93
2023/12/22 00:12:48;;;;;;;38.60;23.50;;;5.50;74.70;;;;;;5008720;28;20208;-92
2023/12/22 00:15:14;;;;;;;41.53;23.60;;;5.50;74.70;;;;;;5007371;28;20182;-92
2023/12/22 00:17:39;;;;;;;40.03;23.20;;;5.60;74.70;;;;;;5012302;28;20276;-92
2023/12/22 00:20:05;;;;;;;40.67;19.63;;;5.50;75.90;;;;;;5010948;28;20201;-92
2023/12/22 00:22:31;;;;;;;48.13;18.43;;;5.50;79.70;;;;;;5008171;28;20182;-93
2023/12/22 00:25:13;;;;;;;41.07;20.43;;;5.40;80.60;;;;;;5008379;28;20184;-93
2023/12/22 00:27:41;;;;;;;30.93;17.13;;;5.40;81.10;;;;;;5007823;28;20174;-93
2023/12/22 00:30:07;;;;;;;43.93;17.30;;;5.30;81.40;;;;;;5010086;28;20194;-93
2023/12/22 00:32:36;;;;;;;33.83;16.13;;;5.30;81.60;;;;;;5004728;28;20229;-92
2023/12/22 00:35:02;;;;;;;35.03;16.10;;;5.30;81.40;;;;;;5009870;28;20174;-92
2023/12/22 00:37:27;;;;;;;26.47;17.07;;;5.30;81.50;;;;;;5006448;28;20650;-92
2023/12/22 00:39:53;;;;;;;43.33;19.33;;;5.20;81.30;;;;;;5008694;28;20266;-92
2023/12/22 00:42:19;;;;;;;25.23;16.73;;;5.20;80.90;;;;;;5007474;28;20181;-92
2023/12/22 00:44:44;;;;;;;48.63;32.73;;;5.20;80.70;;;;;;5009396;28;20217;-93
2023/12/22 00:47:10;;;;;;;48.50;32.90;;;5.20;80.90;;;;;;5008637;28;20189;-92
2023/12/22 00:49:35;;;;;;;33.80;30.33;;;5.20;80.80;;;;;;5006789;28;20719;-93
2023/12/22 00:52:01;;;;;;;;;;;5.10;81.20;;;;;;5005531;28;20236;-92
2023/12/22 00:54:28;;;;;;;29.17;26.93;;;5.00;82.00;;;;;;5004316;28;20182;-93
2023/12/22 00:56:54;;;;;;;29.47;27.20;;;4.90;82.50;;;;;;5004217;28;20595;-92
2023/12/22 00:59:19;;;;;;;30.93;27.93;;;4.70;83.10;;;;;;5005441;28;20216;-92
2023/12/22 01:01:45;;;;;;;;;;;4.60;83.30;;;;;;5007418;28;20147;-92
2023/12/22 01:04:10;;;;;;;;;;;4.50;83.70;;;;;;5007901;28;19978;-93
2023/12/22 01:06:39;;;;;;;;;;;4.50;84.00;;;;;;5005227;28;19906;-92
2023/12/22 01:09:05;;;;;;;;;;;4.50;83.90;;;;;;5002663;28;20000;-92
2023/12/22 01:11:30;;;;;;;28.37;25.70;;;4.60;83.90;;;;;;5004152;28;20185;-93
2023/12/22 01:13:56;;;;;;;29.93;26.60;;;4.60;83.90;;;;;;5003724;28;20219;-92
2023/12/22 01:16:22;;;;;;;27.97;25.33;;;4.60;84.20;;;;;;4999662;28;20188;-93
2023/12/22 01:18:50;;;;;;;;;;;4.70;84.50;;;;;;4999295;28;20178;-92
2023/12/22 01:21:16;;;;;;;;;;;4.60;84.70;;;;;;5003995;28;19929;-93
2023/12/22 01:23:43;;;;;;;;;;;4.30;84.70;;;;;;5016105;28;19945;-93
2023/12/22 01:26:08;;;;;;;;;;;3.70;85.60;;;;;;5017183;28;19905;-93
2023/12/22 01:28:34;;;;;;;;;;;3.20;86.60;;;;;;5017254;28;19916;-94
2023/12/22 01:31:00;;;;;;;;;;;2.90;88.20;;;;;;5015075;28;19937;-92
2023/12/22 01:33:26;;;;;;;;;;;2.90;89.30;;;;;;5014312;28;19913;-94
2023/12/22 01:35:54;;;;;;;;;;;2.80;90.60;;;;;;5015216;28;19906;-94
2023/12/22 01:38:20;;;;;;;;;;;3.00;91.30;;;;;;5014146;28;19910;-93
2023/12/22 01:40:45;;;;;;;;;;;3.10;90.70;;;;;;5015284;28;19973;-93
2023/12/22 01:43:13;;;;;;;;;;;3.10;90.60;;;;;;5018167;28;19894;-94
2023/12/22 01:45:38;;;;;;;;;;;3.10;90.60;;;;;;5017481;28;19894;-94
2023/12/22 01:48:04;;;;;;;;;;;3.20;90.70;;;;;;5017137;28;19910;-93
2023/12/22 01:50:30;;;;;;;;;;;3.30;90.80;;;;;;5016140;28;19937;-92
2023/12/22 01:52:56;;;;;;;;;;;3.40;90.60;;;;;;5015987;28;19909;-93
2023/12/22 01:55:21;;;;;;;;;;;3.50;90.40;;;;;;5015526;28;19905;-93
2023/12/22 01:57:47;;;;;;;;;;;3.50;90.10;;;;;;5013868;28;19913;-93
2023/12/22 02:00:18;;;;;;;;;;;3.50;90.40;;;;;;5013204;28;19913;-91
2023/12/22 02:02:43;;;;;;;14.63;6.13;;;3.60;90.50;;;;;;5012786;28;20356;-91
2023/12/22 02:05:11;;;;;;;19.03;6.50;;;3.60;90.90;;;;;;5012842;28;20221;-92
2023/12/22 02:07:39;;;;;;;;;;;3.60;91.10;;;;;;5013225;28;20163;-92
2023/12/22 02:10:07;;;;;;;24.27;5.80;;;3.70;91.10;;;;;;5012766;28;19894;-92
2023/12/22 02:12:33;;;;;;;13.30;6.37;;;3.70;91.10;;;;;;5014092;28;20299;-93
2023/12/22 02:14:59;;;;;;;18.83;7.27;;;3.70;91.20;;;;;;5014727;28;20189;-93
2023/12/22 02:17:30;;;;;;;18.27;7.63;;;3.70;91.40;;;;;;5012459;28;20189;-92
2023/12/22 02:19:58;;;;;;;17.63;14.43;;;3.80;91.50;;;;;;5013663;28;20200;-91
2023/12/22 02:22:24;;;;;;;25.13;14.70;;;3.80;91.40;;;;;;5015097;28;20193;-93
2023/12/22 02:24:50;;;;;;;29.97;14.87;;;3.80;91.40;;;;;;5013615;28;20178;-93
2023/12/22 02:27:28;;;;;;;17.30;13.30;;;3.80;91.20;;;;;;5014380;28;20189;-92
2023/12/22 02:30:15;;;;;;;17.20;15.43;;;3.90;91.00;;;;;;5013258;28;20732;-93
2023/12/22 02:32:43;;;;;;;25.20;15.77;;;4.10;90.30;;;;;;5013287;28;20224;-92
2023/12/22 02:35:17;;;;;;;23.90;14.67;;;4.10;89.90;;;;;;5016923;28;20201;-94
2023/12/22 02:45:30;;;;;;;21.30;19.07;;;3.50;89.00;;;;;;5047809;28;20205;-94
2023/12/22 02:48:11;;;;;;;19.87;18.13;;;3.30;89.30;;;;;;5053093;28;20234;-93
2023/12/22 02:50:41;;;;;;;19.17;17.80;;;3.30;89.70;;;;;;5055789;28;20187;-92
2023/12/22 02:53:08;;;;;;;7.80;7.30;;;3.10;89.30;;;;;;5055989;28;20194;-94
2023/12/22 02:55:33;;;;;;;8.65;7.85;;;3.00;89.30;;;;;;5053149;28;20197;-94
2023/12/22 02:57:59;;;;;;;19.60;18.20;;;3.00;89.20;;;;;;5049652;28;20181;-93
2023/12/22 03:00:26;;;;;;;21.53;19.83;;;2.90;89.20;;;;;;5052610;28;19905;-93
2023/12/22 03:02:51;;;;;;;12.70;7.87;;;3.00;89.40;;;;;;5049447;28;20212;-93
2023/12/22 03:05:17;;;;;;;7.87;6.73;;;3.20;89.70;;;;;;5049779;28;20173;-94
2023/12/22 03:07:42;;;;;;;10.40;7.13;;;3.20;89.70;;;;;;5048313;28;20758;-93
2023/12/22 03:10:11;;;;;;;11.10;6.90;;;3.30;89.80;;;;;;5047101;28;20206;-93
2023/12/22 03:12:37;;;;;;;11.27;7.23;;;3.30;89.30;;;;;;5044572;28;20290;-93
2023/12/22 03:15:02;;;;;;;;;;;3.30;89.10;;;;;;5046641;28;20183;-93
2023/12/22 03:17:28;;;;;;;;;;;3.20;88.70;;;;;;5045769;28;19955;-93
2023/12/22 03:19:54;;;;;;;10.23;9.00;;;3.30;87.70;;;;;;5041229;28;20055;-94
2023/12/22 03:22:19;;;;;;;9.90;8.93;;;3.30;87.60;;;;;;5042766;28;20193;-93
2023/12/22 03:24:45;;;;;;;13.63;8.80;;;3.30;87.00;;;;;;5041537;28;20182;-93
2023/12/22 03:27:16;;;;;;;14.27;10.23;;;3.40;86.80;;;;;;5042594;28;20248;-92
2023/12/22 03:29:43;;;;;;;18.50;10.10;;;3.50;86.80;;;;;;5029549;28;20223;-93
2023/12/22 03:32:08;;;;;;;12.70;10.27;;;3.60;87.00;;;;;;5049339;28;20216;-93
2023/12/22 03:34:34;;;;;;;24.60;22.37;;;3.80;86.40;;;;;;5052384;28;20173;-94
2023/12/22 03:36:59;;;;;;;25.83;21.17;;;3.90;85.60;;;;;;5055623;28;20244;-93
2023/12/22 03:39:25;;;;;;;23.53;20.63;;;4.00;85.30;;;;;;5053114;28;20207;-93
2023/12/22 03:41:51;;;;;;;24.13;20.73;;;4.00;85.30;;;;;;5054091;28;20168;-93
2023/12/22 03:44:19;;;;;;;29.03;20.10;;;4.10;86.40;;;;;;5056595;28;20250;-93
2023/12/22 03:46:46;;;;;;;25.17;21.20;;;4.00;87.00;;;;;;5054188;28;20252;-93
2023/12/22 03:49:12;;;;;;;36.00;20.40;;;4.00;87.50;;;;;;5052228;28;20207;-93
2023/12/22 03:51:42;;;;;;;31.93;19.80;;;4.00;87.80;;;;;;5055836;28;20246;-94
2023/12/22 03:54:08;;;;;;;31.63;18.33;;;4.00;88.20;;;;;;5056486;28;20179;-93
2023/12/22 03:59:18;;;;;;;22.43;19.57;;;4.00;88.60;;;;;;5086105;22;20250;-94
2023/12/22 04:09:29;;;;;;;27.30;11.80;;;4.30;85.90;;;;;;5056458;28;20225;-93
2023/12/22 04:11:54;;;;;;;25.57;22.97;;;4.40;85.40;;;;;;5058007;28;20264;-93
2023/12/22 04:14:20;;;;;;;27.30;24.43;;;4.30;85.40;;;;;;5056693;28;20192;-93
2023/12/22 04:16:46;;;;;;;;;;;4.40;85.00;;;;;;5054950;28;20081;-93
2023/12/22 04:19:11;;;;;;;;;;;4.40;84.70;;;;;;5058143;28;19909;-93
2023/12/22 04:21:36;;;;;;;;;;;4.60;84.50;;;;;;5057768;28;19893;-94
2023/12/22 04:24:02;;;;;;;;;;;4.40;85.10;;;;;;5058187;28;19900;-93
2023/12/22 04:26:28;;;;;;;;;;;4.50;84.50;;;;;;5056741;28;19935;-93
2023/12/22 04:28:53;;;;;;;;;;;4.60;83.70;;;;;;5057662;28;19893;-93
2023/12/22 04:31:19;;;;;;;;;;;4.60;83.40;;;;;;5052376;28;19978;-93
2023/12/22 04:33:44;;;;;;;;;;;4.60;82.90;;;;;;5055546;28;19905;-94
2023/12/22 04:36:09;;;;;;;;;;;4.50;82.90;;;;;;5056697;28;19909;-93
2023/12/22 04:38:35;;;;;;;;;;;4.50;83.00;;;;;;5056466;28;19968;-93
2023/12/22 04:41:00;;;;;;;;;;;4.60;82.90;;;;;;5049933;28;19893;-92
2023/12/22 04:43:26;;;;;;;;;;;4.70;82.20;;;;;;5048585;28;19905;-94
2023/12/22 04:45:51;;;;;;;;;;;4.60;82.60;;;;;;5053869;28;19928;-93
2023/12/22 04:48:17;;;;;;;;;;;4.70;82.50;;;;;;5051665;28;19889;-94
2023/12/22 04:50:42;;;;;;;;;;;4.70;82.40;;;;;;5052363;28;19976;-93
2023/12/22 04:53:08;;;;;;;;;;;4.70;82.40;;;;;;5053125;28;19928;-93
2023/12/22 04:55:33;;;;;;;;;;;4.80;82.60;;;;;;5054156;28;19909;-93
2023/12/22 04:57:59;;;;;;;;;;;4.90;82.30;;;;;;5048124;28;19905;-92
2023/12/22 05:00:24;;;;;;;;;;;4.90;82.60;;;;;;5051904;28;19905;-93
2023/12/22 05:02:50;;;;;;;;;;;4.70;83.50;;;;;;5052348;28;19951;-93
2023/12/22 05:05:16;;;;;;;27.63;25.07;;;4.60;84.50;;;;;;5056114;28;20148;-94
2023/12/22 05:07:42;;;;;;;27.80;25.13;;;4.00;85.40;;;;;;5053045;28;20208;-93
2023/12/22 05:10:08;;;;;;;30.57;22.87;;;3.70;87.30;;;;;;5051395;28;20201;-92
2023/12/22 05:12:34;;;;;;;28.43;21.43;;;3.50;88.20;;;;;;5033895;28;20225;-93
2023/12/22 05:15:00;;;;;;;22.50;20.30;;;3.40;88.80;;;;;;5051993;28;20176;-93
2023/12/22 05:17:25;;;;;;;27.67;20.03;;;3.50;89.10;;;;;;5049859;28;20232;-93
2023/12/22 05:19:51;;;;;;;32.57;21.07;;;3.40;89.20;;;;;;5049755;28;20197;-93
2023/12/22 05:22:16;;;;;;;32.40;21.00;;;3.50;89.10;;;;;;5051283;28;20231;-94
2023/12/22 05:24:42;;;;;;;34.57;21.07;;;3.60;89.10;;;;;;5051265;28;20216;-92
2023/12/22 05:27:08;;;;;;;24.70;19.60;;;3.70;88.40;;;;;;5052266;28;20168;-93
2023/12/22 05:29:33;;;;;;;23.37;10.97;;;3.90;86.70;;;;;;5051732;28;20200;-93
2023/12/22 05:31:59;;;;;;;24.33;11.03;;;4.00;86.40;;;;;;5054152;28;20211;-93
2023/12/22 05:34:25;;;;;;;29.83;24.70;;;4.00;86.50;;;;;;5045197;28;20642;-93
2023/12/22 05:36:50;;;;;;;27.23;25.13;;;4.00;86.50;;;;;;5046513;28;20206;-93
2023/12/22 05:39:16;;;;;;;25.00;23.30;;;3.70;86.90;;;;;;5050210;28;20203;-93
2023/12/22 05:41:42;;;;;;;27.33;12.30;;;3.30;87.20;;;;;;5049467;28;20181;-93
2023/12/22 05:44:07;;;;;;;15.80;10.43;;;3.20;87.70;;;;;;5050078;28;20206;-93
2023/12/22 05:46:40;;;;;;;26.50;24.37;;;3.00;88.10;;;;;;5053491;28;20183;-94
2023/12/22 05:49:05;;;;;;;27.47;25.40;;;3.00;88.00;;;;;;5050568;28;20192;-93
2023/12/22 05:51:38;;;;;;;25.63;22.97;;;2.90;87.90;;;;;;5050126;28;20209;-93
2023/12/22 05:54:05;;;;;;;14.67;9.80;;;2.90;87.90;;;;;;5048098;28;20204;-93
2023/12/22 05:56:33;;;;;;;13.27;9.13;;;3.00;87.80;;;;;;5049248;28;20178;-92
2023/12/22 05:58:59;;;;;;;15.27;11.57;;;3.00;87.80;;;;;;5048218;28;20200;-94
2023/12/22 06:01:25;;;;;;;15.80;11.57;;;3.20;86.70;;;;;;5050723;28;20269;-90
2023/12/22 06:03:50;;;;;;;24.93;12.93;;;3.20;86.20;;;;;;5041452;28;20180;-92
2023/12/22 06:06:16;;;;;;;22.40;13.60;;;3.30;85.10;;;;;;5045776;28;20184;-93
2023/12/22 06:08:42;;;;;;;21.00;13.10;;;3.40;84.80;;;;;;5042157;28;20422;-93
2023/12/22 06:11:07;;;;;;;22.77;13.90;;;3.50;84.80;;;;;;5043597;28;20177;-92
2023/12/22 06:13:33;;;;;;;15.13;12.30;;;3.80;84.10;;;;;;5045304;28;20204;-94
2023/12/22 06:15:59;;;;;;;31.23;13.70;;;3.90;84.00;;;;;;5045450;28;20182;-91
2023/12/22 06:18:24;;;;;;;28.40;13.97;;;3.90;84.20;;;;;;5050113;28;20194;-90
2023/12/22 06:20:50;;;;;;;20.40;13.83;;;4.00;84.10;;;;;;5048379;28;20249;-93
2023/12/22 06:23:16;;;;;;;39.90;31.70;;;4.00;83.70;;;;;;5053273;28;20212;-92
2023/12/22 06:25:42;;;;;;;39.50;26.27;;;4.00;83.80;;;;;;5047395;28;20180;-92
2023/12/22 06:28:07;;;;;;;36.90;27.40;;;4.10;82.70;;;;;;5046061;28;20165;-93
2023/12/22 06:30:33;;;;;;;46.90;32.33;;;4.10;82.80;;;;;;5044920;28;20203;-93
2023/12/22 06:32:59;;;;;;;44.37;31.03;;;4.10;82.50;;;;;;5046686;28;20223;-93
2023/12/22 06:35:25;;;;;;;45.63;31.73;;;4.10;82.80;;;;;;5046227;28;20176;-93
2023/12/22 06:37:51;;;;;;;54.73;32.03;;;4.10;82.60;;;;;;5045291;28;20194;-93
2023/12/22 06:40:18;;;;;;;49.50;31.13;;;4.10;83.50;;;;;;5047760;28;20225;-92
2023/12/22 06:42:44;;;;;;;29.03;26.20;;;4.00;84.70;;;;;;5046811;28;20193;-92
2023/12/22 06:45:10;;;;;;;37.57;26.60;;;4.00;85.10;;;;;;5049732;28;20180;-92
2023/12/22 06:47:36;;;;;;;41.70;27.10;;;4.00;85.00;;;;;;5051042;28;20212;-92
2023/12/22 06:50:02;;;;;;;45.03;28.20;;;4.00;84.70;;;;;;5048337;28;20200;-92
2023/12/22 06:52:28;;;;;;;35.03;26.73;;;4.00;84.60;;;;;;5052088;28;20204;-93
2023/12/22 06:54:53;;;;;;;42.13;24.93;;;4.20;84.60;;;;;;5052710;28;20251;-93
2023/12/22 06:57:20;;;;;;;31.50;27.03;;;4.10;84.60;;;;;;5056724;28;20167;-93
2023/12/22 06:59:48;;;;;;;16.27;13.07;;;4.00;83.80;;;;;;5051715;28;20193;-93
2023/12/22 07:02:13;;;;;;;28.30;14.17;;;4.00;83.80;;;;;;5054013;28;20184;-93
2023/12/22 07:04:39;;;;;;;42.47;30.37;;;3.90;83.80;;;;;;5052699;28;20708;-93
2023/12/22 07:07:04;;;;;;;40.13;30.33;;;4.00;83.20;;;;;;5053762;28;20264;-90
2023/12/22 07:09:30;;;;;;;39.63;21.93;;;4.10;83.30;;;;;;5051469;28;20203;-92
2023/12/22 07:11:56;;;;;;;34.87;14.73;;;4.10;83.70;;;;;;5052944;28;20289;-93
2023/12/22 07:14:22;;;;;;;35.07;15.80;;;4.20;83.50;;;;;;5055711;28;20176;-93
2023/12/22 07:16:48;;;;;;;38.03;17.87;;;4.20;84.00;;;;;;5057231;28;20190;-93
2023/12/22 07:19:13;;;;;;;34.80;17.70;;;4.30;84.20;;;;;;5053803;28;20245;-92
2023/12/22 07:21:41;;;;;;;19.13;15.23;;;4.30;84.00;;;;;;5047257;28;20178;-92
2023/12/22 07:24:07;;;;;;;21.43;14.63;;;4.40;82.90;;;;;;5049702;28;20180;-92
2023/12/22 07:26:32;;;;;;;13.93;11.67;;;4.40;82.70;;;;;;5053138;28;20207;-94
2023/12/22 07:28:58;;;;;;;16.17;10.70;;;3.80;85.50;;;;;;5058093;28;20206;-92
2023/12/22 07:31:24;;;;;;;16.83;12.27;;;3.60;87.00;;;;;;5059126;28;20176;-93
2023/12/22 07:33:49;;;;;;;16.73;11.13;;;3.30;87.40;;;;;;5057692;28;20243;-94
2023/12/22 07:36:15;;;;;;;21.10;11.07;;;3.20;88.00;;;;;;5055410;28;20174;-93
2023/12/22 07:38:41;;;;;;;22.47;11.23;;;3.20;88.00;;;;;;5054097;28;20173;-93
2023/12/22 07:41:07;;;;;;;26.93;11.63;;;3.30;87.90;;;;;;5056471;28;20185;-94
2023/12/22 07:43:33;;;;;;;21.40;10.90;;;3.30;88.00;;;;;;5050120;28;20183;-91
2023/12/22 07:45:58;;;;;;;23.63;11.43;;;3.40;87.80;;;;;;5047285;28;20185;-90
2023/12/22 07:48:24;;;;;;;21.10;10.90;;;3.40;87.70;;;;;;5054760;28;20719;-93
2023/12/22 07:50:49;;;;;;;24.93;11.10;;;3.50;87.70;;;;;;5051027;28;20221;-92
2023/12/22 07:53:15;;;;;;;27.23;19.63;;;3.60;87.40;;;;;;5050466;28;20200;-92
2023/12/22 07:55:41;;;;;;;35.57;20.10;;;3.70;87.20;;;;;;5049323;28;20167;-93
2023/12/22 07:58:07;;;;;;;32.73;20.10;;;3.90;86.30;;;;;;5047841;28;20185;-93
2023/12/22 08:00:33;;;;;;;35.70;21.13;;;4.00;85.70;;;;;;5050821;28;20202;-93
2023/12/22 08:03:00;;;;;;;21.20;19.13;;;4.00;85.50;;;;;;5053142;28;20236;-93
2023/12/22 08:05:26;;;;;;;32.47;20.53;;;4.20;84.90;;;;;;5050477;28;20184;-92
2023/12/22 08:07:52;;;;;;;24.27;21.67;;;4.20;84.60;;;;;;5047999;28;20203;-93
2023/12/22 08:10:17;;;;;;;34.17;23.30;;;4.30;84.20;;;;;;5047691;28;20208;-93
2023/12/22 08:12:43;;;;;;;34.53;22.63;;;4.30;84.30;;;;;;5045627;28;20196;-92
2023/12/22 08:15:12;;;;;;;24.03;21.30;;;4.40;84.30;;;;;;5045445;28;20177;-93
2023/12/22 08:17:48;;;;;;;34.60;24.03;;;4.40;84.30;;;;;;5046401;28;20183;-93
2023/12/22 08:20:19;;;;;;;31.10;26.10;;;4.50;84.00;;;;;;5045286;28;20205;-93
2023/12/22 08:22:49;;;;;;;29.53;25.50;;;4.60;80.90;;;;;;5049167;28;20181;-92
2023/12/22 08:25:15;;;;;;;31.03;27.50;;;4.40;81.10;;;;;;5045882;28;20179;-92
2023/12/22 08:27:41;;;;;;;31.77;28.43;;;4.30;80.80;;;;;;5047083;28;20179;-92
2023/12/22 08:30:08;;;;;;;31.80;27.10;;;4.30;81.50;;;;;;5049796;28;20208;-92
2023/12/22 08:32:34;;;;;;;38.70;27.73;;;4.40;81.60;;;;;;5044015;28;20199;-93
2023/12/22 08:34:59;;;;;;;28.00;25.03;;;4.30;82.30;;;;;;5045039;28;20211;-92
2023/12/22 08:37:25;;;;;;;31.13;25.63;;;4.30;82.30;;;;;;5043148;28;20212;-92
2023/12/22 08:39:51;;;;;;;16.60;15.20;;;4.40;82.30;;;;;;5049223;28;20191;-93
2023/12/22 08:42:17;;;;;;;14.30;12.90;;;4.10;83.00;;;;;;5039661;28;20636;-93
2023/12/22 08:44:43;;;;;;;16.17;14.10;;;3.50;84.50;;;;;;5041754;28;20185;-92
2023/12/22 08:47:08;;;;;;;25.17;23.03;;;3.40;84.10;;;;;;5043237;28;20565;-91
2023/12/22 08:49:34;;;;;;;28.30;25.47;;;3.50;84.60;;;;;;5047342;28;20216;-94
2023/12/22 08:51:59;;;;;;;20.27;18.50;;;3.70;84.10;;;;;;5046923;28;20233;-92
2023/12/22 08:54:26;;;;;;;18.37;16.20;;;3.70;83.70;;;;;;5052764;28;20191;-93
2023/12/22 08:56:52;;;;;;;20.67;15.70;;;3.90;82.40;;;;;;5057014;28;20175;-93
2023/12/22 08:59:18;;;;;;;30.37;27.73;;;4.00;81.60;;;;;;5057646;28;20211;-92
2023/12/22 09:01:43;;;;;;;31.30;28.57;;;4.10;81.00;;;;;;5057541;28;20167;-93
2023/12/22 09:04:12;;;;;;;20.13;16.50;;;4.10;80.20;;;;;;5058439;28;20165;-94
2023/12/22 09:06:39;;;;;;;22.90;16.43;;;4.20;80.60;;;;;;5056075;28;20191;-93
2023/12/22 09:09:05;;;;;;;31.87;18.67;;;4.30;80.50;;;;;;5052399;28;20239;-94
2023/12/22 09:11:30;;;;;;;30.60;27.40;;;4.30;80.10;;;;;;5049038;28;20204;-93
2023/12/22 09:13:56;;;;;;;36.47;31.23;;;4.30;80.00;;;;;;5044643;28;20660;-93
2023/12/22 09:16:22;;;;;;;21.07;17.97;;;4.30;80.20;;;;;;5045481;28;20180;-93
2023/12/22 09:18:49;;;;;;;24.00;17.43;;;4.30;80.50;;;;;;5044386;28;20640;-93
2023/12/22 09:21:15;;;;;;;23.57;19.17;;;4.30;80.80;;;;;;5039543;28;20184;-92
2023/12/22 09:23:44;;;;;;;27.63;18.27;;;4.30;80.30;;;;;;5044787;28;20210;-93
2023/12/22 09:26:10;;;;;;;28.70;18.27;;;4.30;80.40;;;;;;5046618;28;20195;-93
2023/12/22 09:28:35;;;;;;;27.93;19.30;;;4.30;80.40;;;;;;5046285;28;20270;-92
2023/12/22 09:31:02;;;;;;;20.50;18.40;;;4.30;80.70;;;;;;5049334;28;20180;-93
2023/12/22 09:33:27;;;;;;;26.67;19.53;;;4.30;80.20;;;;;;5049435;28;20210;-93
2023/12/22 09:35:53;;;;;;;30.43;19.27;;;4.30;80.00;;;;;;5049081;28;20212;-92
2023/12/22 09:38:19;;;;;;;33.30;19.67;;;4.40;79.90;;;;;;5043377;28;20182;-94
2023/12/22 09:40:44;;;;;;;25.27;17.90;;;4.50;79.60;;;;;;5037596;28;20203;-92
2023/12/22 09:43:14;;;;;;;29.80;18.23;;;4.60;79.60;;;;;;5040793;28;20611;-93
2023/12/22 09:45:41;;;;;;;25.80;17.77;;;4.70;79.80;;;;;;5041803;28;20175;-92
2023/12/22 09:48:08;;;;;;;31.07;27.73;;;4.80;80.00;;;;;;5043119;28;20211;-93
2023/12/22 09:53:13;;;;;;;35.17;29.63;;;4.80;80.10;;;;;;5061264;22;20243;-93
2023/12/22 09:55:45;;;;;;;31.33;28.07;;;4.80;79.70;;;;;;5021138;28;20263;-88
2023/12/22 09:58:16;;;;;;;39.20;28.37;;;4.80;80.00;;;;;;5037491;28;20176;-90
2023/12/22 10:00:42;;;;;;;31.60;26.07;;;4.80;80.00;;;;;;5038618;28;20187;-90
2023/12/22 10:03:10;;;;;;;29.73;26.90;;;4.90;80.30;;;;;;5038593;28;20195;-92
2023/12/22 10:05:36;;;;;;;37.60;27.03;;;4.90;80.50;;;;;;5034970;28;20210;-90
2023/12/22 10:08:02;;;;;;;36.93;27.20;;;4.90;80.60;;;;;;5037842;28;20247;-92
2023/12/22 10:10:32;;;;;;;40.83;28.20;;;4.90;81.10;;;;;;5036036;28;20204;-89
2023/12/22 10:12:59;;;;;;;32.33;26.83;;;4.90;81.50;;;;;;5035943;28;20214;-91
2023/12/22 10:15:26;;;;;;;32.60;27.03;;;5.00;81.20;;;;;;5043661;28;20177;-93
2023/12/22 10:17:55;;;;;;;28.77;24.97;;;5.00;81.20;;;;;;5043602;28;20187;-92
2023/12/22 10:20:22;;;;;;;31.10;27.27;;;5.00;81.40;;;;;;5037557;28;20550;-92
2023/12/22 10:22:47;;;;;;;38.87;25.63;;;5.00;81.40;;;;;;5034558;28;20233;-91
2023/12/22 10:25:20;;;;;;;31.37;27.10;;;5.00;81.60;;;;;;5037215;28;20187;-91
2023/12/22 10:27:45;;;;;;;34.27;27.00;;;5.00;81.50;;;;;;5038476;28;20181;-91
2023/12/22 10:30:12;;;;;;;26.73;16.53;;;5.00;81.60;;;;;;5038991;28;20200;-91
2023/12/22 10:32:42;;;;;;;26.47;15.20;;;5.10;81.50;;;;;;5047364;28;20204;-91
2023/12/22 10:35:08;;;;;;;;;;;5.00;82.70;;;;;;5042851;28;20157;-92
2023/12/22 10:37:33;;;;;;;24.97;22.20;;;4.90;83.50;;;;;;5044812;28;19909;-92
2023/12/22 10:39:59;;;;;;;21.63;19.60;;;4.30;85.00;;;;;;5044032;28;20687;-92
2023/12/22 10:42:25;;;;;;;15.60;10.47;;;4.10;86.20;;;;;;5046279;28;20181;-92
2023/12/22 10:44:51;;;;;;;11.83;9.90;;;4.00;87.30;;;;;;5052544;28;20182;-92
2023/12/22 10:47:17;;;;;;;25.07;17.17;;;4.00;87.70;;;;;;5053157;28;20181;-91
2023/12/22 10:49:46;;;;;;;24.67;15.30;;;4.00;88.20;;;;;;5050667;28;20230;-92
2023/12/22 10:52:18;;;;;;;21.63;12.07;;;4.10;88.40;;;;;;5057419;28;20211;-89
2023/12/22 10:54:44;;;;;;;20.20;8.60;;;4.10;88.30;;;;;;5056247;28;20167;-93
2023/12/22 10:57:11;;;;;;;19.87;8.23;;;4.10;88.20;;;;;;5054799;28;20271;-93
2023/12/22 10:59:45;;;;;;;14.07;8.37;;;4.00;88.60;;;;;;5052353;28;20186;-92
2023/12/22 11:02:15;;;;;;;18.37;8.93;;;4.10;88.60;;;;;;5056407;28;20171;-93
2023/12/22 11:04:46;;;;;;;14.97;8.63;;;3.90;88.00;;;;;;5053578;28;20183;-92
2023/12/22 11:07:13;;;;;;;18.63;7.70;;;3.60;88.00;;;;;;5051575;28;20168;-91
2023/12/22 11:09:43;;;;;;;18.03;7.93;;;3.50;88.70;;;;;;5059284;28;20187;-92
2023/12/22 11:12:10;;;;;;;18.27;8.53;;;3.40;89.00;;;;;;5057856;28;20206;-92
2023/12/22 11:14:37;;;;;;;12.97;7.83;;;3.40;89.20;;;;;;5056897;28;20193;-91
2023/12/22 11:17:05;;;;;;;19.07;8.03;;;3.40;89.10;;;;;;5057075;28;20145;-91
2023/12/22 11:19:33;;;;;;;11.80;7.87;;;3.50;89.10;;;;;;5043421;28;20229;-90
2023/12/22 11:22:01;;;;;;;13.23;8.10;;;3.40;89.30;;;;;;5043278;28;20170;-93
2023/12/22 11:24:29;;;;;;;17.93;7.47;;;3.50;89.30;;;;;;5054913;28;20187;-93
2023/12/22 11:26:57;;;;;;;29.93;10.53;;;3.60;89.20;;;;;;5054369;28;20177;-92
2023/12/22 11:29:25;;;;;;;20.57;9.20;;;3.60;89.20;;;;;;5047553;28;20273;-92
2023/12/22 11:31:57;;;;;;;23.90;9.80;;;3.60;89.30;;;;;;5042772;28;20211;-92
2023/12/22 11:34:26;;;;;;;21.00;9.10;;;3.70;89.30;;;;;;5050554;28;20229;-92
2023/12/22 11:36:54;;;;;;;32.80;17.87;;;3.70;89.20;;;;;;5049025;28;20195;-92
2023/12/22 11:39:20;;;;;;;18.53;15.63;;;3.80;89.00;;;;;;5048308;28;20211;-92
2023/12/22 11:41:47;;;;;;;27.93;17.10;;;3.90;89.10;;;;;;5050897;28;20215;-92
2023/12/22 11:44:13;;;;;;;33.27;15.93;;;4.20;88.50;;;;;;5045560;28;20277;-92
2023/12/22 11:46:39;;;;;;;24.63;15.70;;;4.30;87.90;;;;;;5050728;28;20182;-92
2023/12/22 11:49:04;;;;;;;31.37;17.33;;;4.30;87.50;;;;;;5049339;28;20226;-92
2023/12/22 11:51:36;;;;;;;22.27;17.73;;;4.30;87.60;;;;;;5048983;28;20249;-92
2023/12/22 11:54:02;;;;;;;;;;;4.30;87.90;;;;;;5049622;28;20058;-92
2023/12/22 11:56:29;;;;;;;30.53;19.53;;;4.40;87.80;;;;;;5047494;28;19999;-92
2023/12/22 11:58:57;;;;;;;28.73;17.60;;;4.60;87.40;;;;;;5049871;28;20187;-91
2023/12/22 12:01:23;;;;;;;27.50;18.13;;;4.70;87.50;;;;;;5046787;28;20188;-91
2023/12/22 12:03:56;;;;;;;25.33;17.67;;;4.70;87.50;;;;;;5051950;28;20169;-92
2023/12/22 12:06:25;;;;;;;28.80;18.13;;;4.80;87.60;;;;;;5051563;28;20169;-92
2023/12/22 12:08:51;;;;;;;28.17;17.57;;;4.80;87.50;;;;;;5054169;28;20178;-92
2023/12/22 12:11:20;;;;;;;24.93;17.00;;;4.80;87.50;;;;;;5053512;28;20222;-92
2023/12/22 12:13:47;;;;;;;24.23;10.33;;;4.80;87.70;;;;;;5054775;28;20207;-92
2023/12/22 12:16:14;;;;;;;38.40;12.77;;;4.80;87.90;;;;;;5051082;28;20185;-92
2023/12/22 12:18:41;;;;;;;35.50;12.37;;;4.80;87.90;;;;;;5052851;28;20189;-93
2023/12/22 12:21:08;;;;;;;36.70;18.43;;;4.90;87.90;;;;;;5056230;28;20159;-92
2023/12/22 12:23:34;;;;;;;31.17;18.63;;;4.90;88.00;;;;;;5054823;28;20180;-92
2023/12/22 12:26:00;;;;;;;27.60;12.07;;;4.80;87.70;;;;;;5053730;28;20196;-93
2023/12/22 12:28:28;;;;;;;27.20;10.87;;;4.80;87.50;;;;;;5055904;28;20179;-93
2023/12/22 12:31:05;;;;;;;29.90;16.20;;;4.90;87.60;;;;;;5053724;28;20177;-92
2023/12/22 12:33:31;;;;;;;34.80;20.50;;;4.90;87.70;;;;;;5051192;28;20199;-92
2023/12/22 12:35:59;;;;;;;28.60;19.20;;;5.00;87.50;;;;;;5047011;28;20168;-93
2023/12/22 12:39:00;;;;;;;32.97;11.37;;;4.90;87.30;;;;;;5047099;28;20246;-92
2023/12/22 12:41:32;;;;;;;21.90;11.23;;;4.90;87.40;;;;;;5048346;28;20180;-92
2023/12/22 12:44:03;;;;;;;30.90;11.43;;;4.90;87.10;;;;;;5047163;28;20169;-92
2023/12/22 12:46:33;;;;;;;;;;;5.00;87.00;;;;;;5048621;28;20240;-92
2023/12/22 12:49:05;;;;;;;30.40;12.57;;;5.00;86.70;;;;;;5049977;28;19905;-93
2023/12/22 12:51:38;;;;;;;29.30;13.67;;;5.00;86.30;;;;;;5047552;28;20180;-91
2023/12/22 12:54:08;;;;;;;31.13;13.17;;;5.00;86.00;;;;;;5084050;22;20239;-91
2023/12/22 12:56:41;;;;;;;18.83;12.57;;;5.00;85.80;;;;;;5043795;28;20184;-93
2023/12/22 12:59:10;;;;;;;23.10;11.87;;;5.00;85.80;;;;;;5043486;28;20612;-93
2023/12/22 13:01:43;;;;;;;22.67;12.70;;;5.10;85.80;;;;;;5040840;28;20645;-93
2023/12/22 13:04:09;;;;;;;21.93;12.00;;;5.10;85.50;;;;;;5041545;28;20184;-93
2023/12/22 13:06:34;;;;;;;22.57;11.67;;;5.10;85.50;;;;;;5041450;28;20173;-92
2023/12/22 13:09:00;;;;;;;19.13;12.60;;;5.10;85.50;;;;;;5041005;28;20216;-92
2023/12/22 13:11:28;;;;;;;25.53;11.70;;;5.10;85.40;;;;;;5038799;28;20184;-93